createdAt,value
2022-08-24T00:00:01.607Z,39.80
2022-08-24T00:02:28.666Z,39.90
2022-08-24T00:04:55.363Z,39.90
2022-08-24T00:07:27.692Z,39.80
2022-08-24T00:09:54.834Z,40.00
2022-08-24T00:12:21.642Z,40.60
2022-08-24T00:14:49.385Z,40.70
2022-08-24T00:17:16.822Z,40.50
2022-08-24T00:19:43.766Z,41.00
2022-08-24T00:22:10.483Z,40.50
2022-08-24T00:24:37.204Z,40.70
2022-08-24T00:27:04.662Z,41.10
2022-08-24T00:29:31.453Z,40.70
2022-08-24T00:31:58.181Z,40.60
2022-08-24T00:34:26.448Z,40.70
2022-08-24T00:36:53.479Z,40.90
2022-08-24T00:39:20.403Z,41.50
2022-08-24T00:41:48.322Z,41.20
2022-08-24T00:44:16.692Z,42.00
2022-08-24T00:46:51.698Z,41.60
2022-08-24T00:49:20.482Z,41.60
2022-08-24T00:51:55.444Z,41.90
2022-08-24T00:54:22.083Z,41.80
2022-08-24T00:56:52.669Z,41.70
2022-08-24T00:59:22.372Z,41.70
2022-08-24T01:01:50.214Z,41.50
2022-08-24T01:04:29.053Z,41.80
2022-08-24T01:06:56.813Z,42.00
2022-08-24T01:09:23.607Z,42.10
2022-08-24T01:11:50.386Z,41.80
2022-08-24T01:14:17.879Z,41.90
2022-08-24T01:17:02.944Z,42.10
2022-08-24T01:19:43.697Z,41.90
2022-08-24T01:22:32.590Z,42.10
2022-08-24T01:24:59.860Z,42.00
2022-08-24T01:27:28.187Z,42.20
2022-08-24T01:29:55.145Z,42.00
2022-08-24T01:32:27.818Z,42.20
2022-08-24T01:34:55.540Z,42.10
2022-08-24T01:37:22.593Z,42.00
2022-08-24T01:39:49.763Z,42.10
2022-08-24T01:42:16.607Z,41.90
2022-08-24T01:44:43.938Z,42.10
2022-08-24T01:47:11.608Z,42.30
2022-08-24T01:49:40.480Z,42.00
2022-08-24T01:52:07.858Z,42.30
2022-08-24T01:54:34.513Z,42.10
2022-08-24T01:57:01.757Z,42.10
2022-08-24T01:59:28.591Z,42.70
2022-08-24T02:02:06.754Z,42.60
2022-08-24T02:04:34.651Z,42.80
2022-08-24T02:07:01.402Z,43.00
2022-08-24T02:09:28.044Z,42.80
2022-08-24T02:11:59.456Z,42.80
2022-08-24T02:14:26.104Z,42.80
2022-08-24T02:16:57.315Z,43.20
2022-08-24T02:19:25.428Z,43.20
2022-08-24T02:21:52.068Z,43.40
2022-08-24T02:24:18.731Z,43.40
2022-08-24T02:26:45.418Z,43.50
2022-08-24T02:29:12.047Z,43.30
2022-08-24T02:31:38.689Z,43.30
2022-08-24T02:34:05.600Z,43.40
2022-08-24T02:36:32.290Z,43.50
2022-08-24T02:38:58.924Z,43.50
2022-08-24T02:41:25.908Z,43.40
2022-08-24T02:43:53.423Z,43.50
2022-08-24T02:46:21.086Z,43.40
2022-08-24T02:48:47.886Z,43.40
2022-08-24T02:51:42.314Z,43.20
2022-08-24T02:54:11.372Z,43.30
2022-08-24T02:56:37.988Z,43.20
2022-08-24T02:59:04.653Z,43.00
2022-08-24T03:01:31.358Z,43.10
2022-08-24T03:03:58.001Z,43.20
2022-08-24T03:06:24.785Z,43.20
2022-08-24T03:08:56.566Z,43.00
2022-08-24T03:11:27.748Z,43.10
2022-08-24T03:13:55.481Z,43.10
2022-08-24T03:16:22.129Z,43.20
2022-08-24T03:18:48.739Z,43.20
2022-08-24T03:21:15.444Z,43.30
2022-08-24T03:23:42.076Z,43.30
2022-08-24T03:26:08.696Z,43.40
2022-08-24T03:28:35.311Z,43.40
2022-08-24T03:31:02.052Z,43.40
2022-08-24T03:33:28.781Z,43.80
2022-08-24T03:35:55.395Z,43.90
2022-08-24T03:38:22.209Z,43.70
2022-08-24T03:40:48.968Z,43.70
2022-08-24T03:43:35.554Z,44.20
2022-08-24T03:46:03.026Z,44.00
2022-08-24T03:48:30.201Z,44.10
2022-08-24T03:50:57.005Z,44.20
2022-08-24T03:53:23.716Z,44.00
2022-08-24T03:55:50.401Z,44.00
2022-08-24T03:58:17.532Z,44.00
2022-08-24T04:00:44.509Z,43.90
2022-08-24T04:03:11.598Z,43.80
2022-08-24T04:05:38.814Z,44.00
2022-08-24T04:08:06.428Z,43.90
2022-08-24T04:10:33.431Z,43.90
2022-08-24T04:13:01.420Z,43.90
2022-08-24T04:15:29.947Z,44.00
2022-08-24T04:17:56.604Z,43.70
2022-08-24T04:20:24.057Z,43.70
2022-08-24T04:22:51.424Z,43.70
2022-08-24T04:25:24.632Z,44.00
2022-08-24T04:27:51.932Z,44.00
2022-08-24T04:30:18.695Z,44.00
2022-08-24T04:32:45.351Z,44.00
2022-08-24T04:35:12.514Z,44.00
2022-08-24T04:37:39.174Z,44.10
2022-08-24T04:40:08.542Z,44.30
2022-08-24T04:42:35.523Z,44.10
2022-08-24T04:45:04.028Z,44.10
2022-08-24T04:47:30.679Z,44.30
2022-08-24T04:49:57.294Z,44.20
2022-08-24T04:52:24.157Z,44.20
2022-08-24T04:54:50.814Z,44.30
2022-08-24T04:57:18.499Z,44.30
2022-08-24T04:59:45.641Z,44.40
2022-08-24T05:02:12.523Z,44.40
2022-08-24T05:04:39.312Z,44.50
2022-08-24T05:07:06.122Z,44.40
2022-08-24T05:09:32.783Z,44.40
2022-08-24T05:11:59.437Z,44.40
2022-08-24T05:14:28.995Z,44.50
2022-08-24T05:16:55.944Z,44.50
2022-08-24T05:19:23.496Z,44.40
2022-08-24T05:21:50.450Z,44.50
2022-08-24T05:24:17.111Z,44.60
2022-08-24T05:26:43.755Z,44.70
2022-08-24T05:29:10.792Z,44.60
2022-08-24T05:31:37.601Z,44.70
2022-08-24T05:34:04.399Z,44.60
2022-08-24T05:36:33.352Z,44.60
2022-08-24T05:39:01.853Z,44.50
2022-08-24T05:41:28.633Z,44.60
2022-08-24T05:43:55.310Z,44.80
2022-08-24T05:46:22.016Z,44.70
2022-08-24T05:48:49.897Z,44.90
2022-08-24T05:51:20.259Z,44.90
2022-08-24T05:53:46.896Z,44.80
2022-08-24T05:56:14.640Z,44.90
2022-08-24T05:58:41.277Z,45.10
2022-08-24T06:01:15.552Z,45.10
2022-08-24T06:03:42.337Z,45.10
2022-08-24T06:06:09.102Z,45.20
2022-08-24T06:08:41.754Z,45.30
2022-08-24T06:11:08.875Z,45.30
2022-08-24T06:13:36.086Z,45.60
2022-08-24T06:16:21.124Z,45.60
2022-08-24T06:18:49.507Z,45.80
2022-08-24T06:21:18.207Z,45.90
2022-08-24T06:23:45.139Z,45.80
2022-08-24T06:26:30.723Z,45.80
2022-08-24T06:28:57.477Z,45.80
2022-08-24T06:31:27.327Z,45.80
2022-08-24T06:33:54.601Z,45.80
2022-08-24T06:36:22.919Z,45.60
2022-08-24T06:38:49.738Z,45.50
2022-08-24T06:41:16.705Z,45.30
2022-08-24T06:43:43.330Z,45.20
2022-08-24T06:46:10.056Z,45.00
2022-08-24T06:48:36.701Z,44.80
2022-08-24T06:51:11.372Z,44.90
2022-08-24T06:53:38.295Z,44.60
2022-08-24T06:56:04.990Z,44.40
2022-08-24T06:58:32.371Z,44.30
2022-08-24T07:00:59.324Z,44.00
2022-08-24T07:03:26.397Z,44.20
2022-08-24T07:05:54.059Z,43.80
2022-08-24T07:08:21.089Z,43.10
2022-08-24T07:10:47.958Z,42.30
2022-08-24T07:13:14.701Z,42.40
2022-08-24T07:15:42.275Z,42.00
2022-08-24T07:18:11.586Z,41.70
2022-08-24T07:20:38.317Z,41.20
2022-08-24T07:23:05.752Z,40.70
2022-08-24T07:25:33.524Z,40.80
2022-08-24T07:28:03.146Z,41.10
2022-08-24T07:30:31.379Z,40.90
2022-08-24T07:32:58.692Z,40.40
2022-08-24T07:35:26.733Z,40.70
2022-08-24T07:37:54.951Z,40.10
2022-08-24T07:40:22.635Z,39.90
2022-08-24T07:42:50.462Z,39.30
2022-08-24T07:45:17.331Z,39.20
2022-08-24T07:47:54.559Z,39.30
2022-08-24T07:50:22.053Z,37.80
2022-08-24T07:52:48.719Z,37.80
2022-08-24T07:55:15.728Z,38.20
2022-08-24T07:57:45.065Z,37.70
2022-08-24T08:00:13.095Z,36.80
2022-08-24T08:02:42.898Z,36.70
2022-08-24T08:05:10.343Z,36.70
2022-08-24T08:07:37.052Z,36.20
2022-08-24T08:10:04.113Z,35.60
2022-08-24T08:12:30.774Z,35.50
2022-08-24T08:14:57.936Z,34.80
2022-08-24T08:17:24.777Z,34.90
2022-08-24T08:19:51.442Z,34.40
2022-08-24T08:22:36.354Z,34.20
2022-08-24T08:25:03.797Z,33.70
2022-08-24T08:27:30.429Z,32.50
2022-08-24T08:29:57.235Z,31.90
2022-08-24T08:32:23.872Z,31.30
2022-08-24T08:34:50.531Z,29.70
2022-08-24T08:37:17.225Z,29.30
2022-08-24T08:39:43.976Z,29.30
2022-08-24T08:42:17.446Z,30.00
2022-08-24T08:44:56.860Z,29.80
2022-08-24T08:47:44.680Z,29.70
2022-08-24T08:50:31.695Z,30.50
2022-08-24T08:53:25.404Z,30.50
2022-08-24T08:56:15.427Z,29.90
2022-08-24T08:59:01.496Z,29.20
2022-08-24T09:01:46.601Z,28.00
2022-08-24T09:04:25.634Z,27.90
2022-08-24T09:07:15.882Z,26.30
2022-08-24T09:10:00.584Z,26.40
2022-08-24T09:12:55.377Z,26.10
2022-08-24T09:15:42.510Z,25.40
2022-08-24T09:18:40.372Z,25.50
2022-08-24T09:21:38.877Z,26.20
2022-08-24T09:24:32.172Z,26.90
2022-08-24T09:27:24.096Z,26.70
2022-08-24T09:30:12.049Z,27.30
2022-08-24T09:33:06.631Z,26.90
2022-08-24T09:35:51.562Z,26.60
2022-08-24T09:38:26.502Z,26.20
2022-08-24T09:41:05.477Z,25.20
2022-08-24T09:44:07.305Z,24.20
2022-08-24T09:46:59.097Z,25.20
2022-08-24T09:49:53.326Z,24.20
2022-08-24T09:52:31.620Z,24.10
2022-08-24T09:55:32.265Z,23.20
2022-08-24T09:58:34.233Z,22.60
2022-08-24T10:01:08.511Z,22.90
2022-08-24T10:03:47.531Z,21.60
2022-08-24T10:06:28.762Z,21.70
2022-08-24T10:09:34.485Z,21.50
2022-08-24T10:12:07.662Z,21.80
2022-08-24T10:14:52.605Z,21.20
2022-08-24T10:17:48.370Z,21.80
2022-08-24T10:20:23.834Z,20.90
2022-08-24T10:23:12.039Z,20.50
2022-08-24T10:25:58.785Z,20.10
2022-08-24T10:28:44.848Z,19.10
2022-08-24T10:31:18.545Z,20.20
2022-08-24T10:33:56.362Z,18.00
2022-08-24T10:36:41.209Z,18.30
2022-08-24T10:39:29.294Z,18.40
2022-08-24T10:42:39.260Z,17.90
2022-08-24T10:45:26.343Z,18.90
2022-08-24T10:48:04.045Z,18.30
2022-08-24T10:50:46.961Z,17.80
2022-08-24T10:53:26.112Z,17.40
2022-08-24T10:56:13.808Z,17.20
2022-08-24T10:58:49.587Z,17.70
2022-08-24T11:01:29.737Z,16.50
2022-08-24T11:04:01.083Z,17.10
2022-08-24T11:06:31.437Z,16.60
2022-08-24T11:09:01.275Z,16.40
2022-08-24T11:11:30.696Z,16.00
2022-08-24T11:14:03.637Z,15.70
2022-08-24T11:16:38.648Z,15.50
2022-08-24T11:19:09.744Z,15.70
2022-08-24T11:21:44.162Z,15.50
2022-08-24T11:24:24.345Z,15.60
2022-08-24T11:27:08.328Z,15.10
2022-08-24T11:29:50.177Z,15.40
2022-08-24T11:32:37.762Z,15.00
2022-08-24T11:35:26.393Z,15.50
2022-08-24T11:37:56.063Z,14.60
2022-08-24T11:40:29.832Z,14.10
2022-08-24T11:43:18.477Z,14.20
2022-08-24T11:46:02.667Z,14.70
2022-08-24T11:49:02.847Z,14.30
2022-08-24T11:51:47.483Z,14.70
2022-08-24T11:54:24.412Z,14.50
2022-08-24T11:57:09.150Z,14.10
2022-08-24T11:59:54.141Z,14.60
2022-08-24T12:02:36.346Z,14.30
2022-08-24T12:05:38.374Z,14.40
2022-08-24T12:08:44.136Z,14.00
2022-08-24T12:11:33.635Z,13.80
2022-08-24T12:14:17.850Z,13.90
2022-08-24T12:16:52.121Z,13.10
2022-08-24T12:19:21.459Z,13.10
2022-08-24T12:21:52.278Z,12.80
2022-08-24T12:24:35.769Z,12.90
2022-08-24T12:27:10.859Z,13.00
2022-08-24T12:29:44.670Z,12.80
2022-08-24T12:32:19.915Z,12.70
2022-08-24T12:35:09.981Z,12.90
2022-08-24T12:37:49.194Z,13.10
2022-08-24T12:40:32.321Z,13.30
2022-08-24T12:43:23.159Z,13.70
2022-08-24T12:45:50.178Z,14.60
2022-08-24T12:48:30.396Z,15.20
2022-08-24T12:51:17.637Z,15.50
2022-08-24T12:54:01.532Z,15.60
2022-08-24T12:56:52.745Z,15.30
2022-08-24T12:59:19.345Z,15.30
2022-08-24T13:02:01.414Z,14.80
2022-08-24T13:04:28.012Z,14.70
2022-08-24T13:07:09.697Z,14.60
2022-08-24T13:09:43.650Z,14.60
2022-08-24T13:12:38.317Z,14.80
2022-08-24T13:15:23.376Z,14.90
2022-08-24T13:17:50.790Z,15.10
2022-08-24T13:20:23.548Z,15.80
2022-08-24T13:23:15.946Z,15.70
2022-08-24T13:25:42.844Z,16.10
2022-08-24T13:28:27.130Z,17.10
2022-08-24T13:30:54.023Z,17.60
2022-08-24T13:33:30.927Z,18.40
2022-08-24T13:36:04.293Z,17.90
2022-08-24T13:38:34.072Z,18.80
2022-08-24T13:41:10.683Z,18.50
2022-08-24T13:43:45.515Z,18.60
2022-08-24T13:46:23.718Z,18.70
2022-08-24T13:49:03.684Z,19.50
2022-08-24T13:51:35.219Z,19.30
2022-08-24T13:54:20.216Z,19.30
2022-08-24T13:57:28.449Z,19.60
2022-08-24T14:00:17.345Z,19.40
2022-08-24T14:02:53.038Z,19.70
2022-08-24T14:05:44.639Z,20.40
2022-08-24T14:08:33.918Z,20.00
2022-08-24T14:11:23.587Z,20.20
2022-08-24T14:14:04.524Z,20.70
2022-08-24T14:17:19.301Z,20.60
2022-08-24T14:20:07.932Z,20.50
2022-08-24T14:22:59.677Z,20.50
2022-08-24T14:25:30.468Z,21.50
2022-08-24T14:27:59.935Z,21.50
2022-08-24T14:30:26.626Z,22.00
2022-08-24T14:32:59.449Z,22.30
2022-08-24T14:35:39.648Z,22.40
2022-08-24T14:38:22.729Z,23.00
2022-08-24T14:41:20.421Z,23.10
2022-08-24T14:44:12.784Z,22.80
2022-08-24T14:47:08.230Z,22.80
2022-08-24T14:49:44.979Z,23.20
2022-08-24T14:52:30.031Z,24.00
2022-08-24T14:55:17.868Z,23.60
2022-08-24T14:57:59.960Z,23.70
2022-08-24T15:00:49.105Z,24.50
2022-08-24T15:03:42.300Z,24.70
2022-08-24T15:06:40.791Z,24.30
2022-08-24T15:09:23.139Z,24.70
2022-08-24T15:11:51.443Z,25.20
2022-08-24T15:14:41.418Z,25.50
2022-08-24T15:17:11.122Z,25.00
2022-08-24T15:19:55.916Z,25.90
2022-08-24T15:22:27.296Z,25.80
2022-08-24T15:25:04.928Z,25.60
2022-08-24T15:27:40.580Z,25.80
2022-08-24T15:30:08.058Z,25.90
2022-08-24T15:32:51.652Z,25.90
2022-08-24T15:35:26.881Z,26.00
2022-08-24T15:37:53.641Z,26.60
2022-08-24T15:40:29.367Z,26.60
2022-08-24T15:42:58.338Z,26.60
2022-08-24T15:45:25.098Z,26.70
2022-08-24T15:47:58.195Z,26.80
2022-08-24T15:50:26.434Z,26.60
2022-08-24T15:53:02.208Z,26.80
2022-08-24T15:55:39.626Z,26.80
2022-08-24T15:58:30.819Z,26.90
2022-08-24T16:01:29.379Z,26.90
2022-08-24T16:04:11.249Z,27.50
2022-08-24T16:06:40.893Z,27.30
2022-08-24T16:09:22.783Z,27.30
2022-08-24T16:12:08.241Z,26.90
2022-08-24T16:14:46.960Z,27.20
2022-08-24T16:17:37.181Z,27.40
2022-08-24T16:20:07.088Z,27.10
2022-08-24T16:22:36.693Z,27.80
2022-08-24T16:25:25.446Z,27.90
2022-08-24T16:28:10.068Z,27.60
2022-08-24T16:30:55.223Z,27.70
2022-08-24T16:33:44.883Z,27.70
2022-08-24T16:36:14.244Z,27.50
2022-08-24T16:38:46.144Z,27.80
2022-08-24T16:41:13.479Z,28.20
2022-08-24T16:43:40.937Z,28.00
2022-08-24T16:46:08.246Z,28.10
2022-08-24T16:48:35.048Z,28.50
2022-08-24T16:51:02.027Z,28.20
2022-08-24T16:53:28.719Z,28.40
2022-08-24T16:55:55.468Z,28.30
2022-08-24T16:58:24.088Z,28.40
2022-08-24T17:00:50.810Z,28.60
2022-08-24T17:03:17.487Z,29.10
2022-08-24T17:05:44.561Z,28.70
2022-08-24T17:08:11.367Z,28.90
2022-08-24T17:10:38.161Z,28.80
2022-08-24T17:13:04.856Z,29.00
2022-08-24T17:15:31.508Z,29.10
2022-08-24T17:18:06.312Z,29.50
2022-08-24T17:20:33.131Z,29.40
2022-08-24T17:22:59.773Z,29.20
2022-08-24T17:25:26.461Z,29.20
2022-08-24T17:27:53.969Z,29.40
2022-08-24T17:30:23.434Z,30.00
2022-08-24T17:32:53.129Z,30.00
2022-08-24T17:35:20.856Z,29.70
2022-08-24T17:37:48.162Z,29.80
2022-08-24T17:40:16.759Z,29.70
2022-08-24T17:42:51.631Z,29.70
2022-08-24T17:45:19.407Z,30.00
2022-08-24T17:47:46.411Z,30.00
2022-08-24T17:50:14.423Z,30.00
2022-08-24T17:52:41.169Z,29.90
2022-08-24T17:55:09.414Z,30.60
2022-08-24T17:57:36.178Z,30.70
2022-08-24T18:00:03.017Z,30.40
2022-08-24T18:02:30.424Z,30.10
2022-08-24T18:04:57.087Z,31.00
2022-08-24T18:07:42.124Z,30.40
2022-08-24T18:10:11.158Z,30.50
2022-08-24T18:12:37.793Z,30.30
2022-08-24T18:15:05.081Z,30.60
2022-08-24T18:17:37.753Z,30.80
2022-08-24T18:20:06.202Z,30.60
2022-08-24T18:22:32.838Z,30.80
2022-08-24T18:24:59.491Z,30.60
2022-08-24T18:27:30.520Z,30.50
2022-08-24T18:30:01.325Z,30.50
2022-08-24T18:32:31.102Z,30.70
2022-08-24T18:34:58.417Z,31.50
2022-08-24T18:37:25.058Z,31.20
2022-08-24T18:39:51.797Z,31.20
2022-08-24T18:42:18.566Z,31.50
2022-08-24T18:44:45.201Z,31.40
2022-08-24T18:47:11.832Z,31.60
2022-08-24T18:49:38.893Z,31.70
2022-08-24T18:52:06.617Z,31.90
2022-08-24T18:54:36.112Z,32.00
2022-08-24T18:57:04.093Z,31.90
2022-08-24T18:59:30.742Z,32.40
2022-08-24T19:02:16.154Z,32.00
2022-08-24T19:04:45.210Z,32.10
2022-08-24T19:07:12.180Z,32.10
2022-08-24T19:09:38.886Z,32.10
2022-08-24T19:12:06.194Z,32.20
2022-08-24T19:14:33.588Z,32.30
2022-08-24T19:17:00.262Z,32.20
2022-08-24T19:19:26.976Z,32.60
2022-08-24T19:21:53.607Z,32.50
2022-08-24T19:24:24.320Z,32.70
2022-08-24T19:26:51.029Z,32.70
2022-08-24T19:29:33.235Z,33.90
2022-08-24T19:32:05.827Z,33.50
2022-08-24T19:34:36.959Z,33.60
2022-08-24T19:37:04.691Z,33.60
2022-08-24T19:39:31.938Z,33.90
2022-08-24T19:41:58.692Z,33.80
2022-08-24T19:44:51.758Z,34.80
2022-08-24T19:47:18.761Z,34.20
2022-08-24T19:49:45.665Z,34.40
2022-08-24T19:52:12.358Z,34.10
2022-08-24T19:54:41.167Z,34.60
2022-08-24T19:57:50.966Z,35.00
2022-08-24T20:00:17.557Z,34.60
2022-08-24T20:02:48.577Z,34.60
2022-08-24T20:05:16.250Z,34.90
2022-08-24T20:07:43.739Z,35.20
2022-08-24T20:10:12.862Z,35.30
2022-08-24T20:12:40.258Z,35.50
2022-08-24T20:15:07.196Z,36.10
2022-08-24T20:17:34.761Z,36.40
2022-08-24T20:20:02.306Z,36.00
2022-08-24T20:22:29.541Z,35.90
2022-08-24T20:24:56.176Z,36.40
2022-08-24T20:27:24.254Z,36.40
2022-08-24T20:29:51.006Z,36.10
2022-08-24T20:32:17.657Z,36.40
2022-08-24T20:34:44.907Z,36.40
2022-08-24T20:37:15.365Z,36.90
2022-08-24T20:39:42.032Z,36.80
2022-08-24T20:42:12.322Z,36.50
2022-08-24T20:44:42.721Z,37.00
2022-08-24T20:47:09.383Z,36.90
2022-08-24T20:49:36.004Z,38.20
2022-08-24T20:52:02.819Z,37.90
2022-08-24T20:54:29.791Z,37.80
2022-08-24T20:56:56.431Z,37.80
2022-08-24T20:59:23.344Z,38.30
2022-08-24T21:01:50.524Z,39.00
2022-08-24T21:04:17.292Z,39.70
2022-08-24T21:06:44.265Z,39.10
2022-08-24T21:09:14.169Z,39.70
2022-08-24T21:11:41.615Z,38.90
2022-08-24T21:14:08.654Z,40.10
2022-08-24T21:16:36.319Z,40.20
2022-08-24T21:19:03.336Z,39.70
2022-08-24T21:21:30.428Z,40.00
2022-08-24T21:23:57.054Z,40.60
2022-08-24T21:26:24.715Z,40.60
2022-08-24T21:28:52.072Z,40.80
2022-08-24T21:31:18.810Z,41.20
2022-08-24T21:34:03.983Z,40.50
2022-08-24T21:36:31.892Z,40.20
2022-08-24T21:38:58.665Z,40.20
2022-08-24T21:41:29.265Z,40.50
2022-08-24T21:43:56.444Z,40.90
2022-08-24T21:46:32.043Z,41.60
2022-08-24T21:48:59.418Z,40.90
2022-08-24T21:51:26.449Z,41.20
2022-08-24T21:53:54.951Z,41.00
2022-08-24T21:56:28.300Z,41.70
2022-08-24T21:58:55.079Z,42.20
2022-08-24T22:01:21.782Z,41.70
2022-08-24T22:03:48.679Z,41.90
2022-08-24T22:06:15.387Z,41.30
2022-08-24T22:08:42.626Z,41.30
2022-08-24T22:11:10.661Z,41.10
2022-08-24T22:13:38.251Z,41.20
2022-08-24T22:16:06.274Z,41.10
2022-08-24T22:18:33.213Z,41.00
2022-08-24T22:21:00.206Z,41.00
2022-08-24T22:23:26.966Z,41.20
2022-08-24T22:25:54.239Z,41.20
2022-08-24T22:28:20.967Z,41.20
2022-08-24T22:30:48.938Z,41.40
2022-08-24T22:33:15.829Z,41.40
2022-08-24T22:35:45.100Z,41.30
2022-08-24T22:38:12.379Z,41.20
2022-08-24T22:40:39.210Z,41.20
2022-08-24T22:43:06.194Z,42.00
2022-08-24T22:45:33.010Z,41.50
2022-08-24T22:47:59.641Z,41.40
2022-08-24T22:50:26.286Z,41.50
2022-08-24T22:52:53.605Z,41.30
2022-08-24T22:55:20.284Z,41.40
2022-08-24T22:57:51.202Z,41.60
2022-08-24T23:00:18.402Z,41.70
2022-08-24T23:02:45.048Z,42.10
2022-08-24T23:05:11.741Z,41.90
2022-08-24T23:07:38.414Z,42.20
2022-08-24T23:10:05.677Z,42.60
2022-08-24T23:12:32.941Z,42.60
2022-08-24T23:14:59.686Z,42.70
2022-08-24T23:17:26.361Z,42.50
2022-08-24T23:20:04.543Z,42.40
2022-08-24T23:22:34.770Z,42.40
2022-08-24T23:25:01.468Z,42.50
2022-08-24T23:27:33.060Z,42.40
2022-08-24T23:30:10.448Z,43.00
2022-08-24T23:32:37.063Z,43.20
2022-08-24T23:35:04.204Z,43.50
2022-08-24T23:37:30.880Z,43.40
2022-08-24T23:39:57.737Z,43.10
2022-08-24T23:42:24.413Z,43.20
2022-08-24T23:44:51.411Z,43.50
2022-08-24T23:47:18.098Z,43.60
2022-08-24T23:49:44.713Z,43.90
2022-08-24T23:52:25.895Z,43.80
2022-08-24T23:54:55.800Z,43.70
2022-08-24T23:57:33.767Z,43.50
